Time;durP1;ratioP1;P1;durP2;ratioP2;P2;SDS_P1;SDS_P2;PMS_P1;PMS_P2;Temp;Humidity;BMP_temperature;BMP_pressure;BME280_temperature;BME280_humidity;BME280_pressure;Samples;Min_cycle;Max_cycle;Signal;HPM_P1;HPM_P2
2021/11/04 00:01:14;;;;;;;8.50;3.00;;;;;;;20.66;74.94;101612.03;5098133;28;20040;-82
2021/11/04 00:03:42;;;;;;;9.27;2.75;;;;;;;20.63;74.87;101614.72;5089994;28;20036;-82
2021/11/04 00:06:09;;;;;;;6.63;2.70;;;;;;;20.64;74.75;101611.16;5088608;28;20036;-82
2021/11/04 00:08:39;;;;;;;5.90;2.60;;;;;;;20.64;74.32;101605.78;5089983;28;20044;-81
2021/11/04 00:11:06;;;;;;;8.60;2.42;;;;;;;20.63;74.45;101598.63;5089661;28;20135;-81
2021/11/04 00:13:35;;;;;;;6.82;2.58;;;;;;;20.61;74.55;101609.38;5089950;28;20130;-81
2021/11/04 00:16:02;;;;;;;5.38;2.45;;;;;;;20.59;74.43;101608.53;5089534;28;20119;-81
2021/11/04 00:18:30;;;;;;;7.20;2.70;;;;;;;20.56;74.44;101604.97;5088003;28;20124;-80
2021/11/04 00:20:58;;;;;;;10.85;2.83;;;;;;;20.55;74.80;101595.16;5090648;28;20503;-80
2021/11/04 00:23:26;;;;;;;6.95;3.38;;;;;;;20.53;74.96;101599.66;5109699;27;20131;-82
2021/11/04 00:25:56;;;;;;;9.40;2.95;;;;;;;20.52;75.00;101600.56;5110507;27;20064;-81
2021/11/04 00:28:23;;;;;;;7.68;3.20;;;;;;;20.47;75.74;101595.25;5093534;28;20170;-81
2021/11/04 00:30:51;;;;;;;9.90;2.83;;;;;;;20.48;75.58;101599.69;5092684;27;20096;-82
2021/11/04 00:33:18;;;;;;;6.80;1.88;;;;;;;20.50;75.50;101599.69;5086586;28;20048;-82
2021/11/04 00:35:46;;;;;;;8.15;1.98;;;;;;;20.54;74.33;101599.66;5098581;28;20048;-83
2021/11/04 00:38:14;;;;;;;6.03;1.90;;;;;;;20.56;74.13;101592.44;5078269;28;20040;-82
2021/11/04 00:40:41;;;;;;;5.30;2.10;;;;;;;20.59;73.57;101587.06;5107710;27;20047;-81
2021/11/04 00:43:10;;;;;;;4.65;1.77;;;;;;;20.59;73.17;101595.09;5074591;28;20094;-82
2021/11/04 00:45:38;;;;;;;4.85;1.45;;;;;;;20.60;72.29;101596.91;5086218;28;20110;-83
2021/11/04 00:48:05;;;;;;;4.97;1.63;;;;;;;20.63;71.14;101595.94;5090547;27;20093;-82
2021/11/04 00:50:33;;;;;;;4.68;1.10;;;;;;;20.67;70.38;101592.34;5090957;27;20052;-81
2021/11/04 00:53:01;;;;;;;4.97;1.85;;;;;;;20.70;69.58;101586.91;5094880;27;20518;-81
2021/11/04 00:55:29;;;;;;;4.32;1.25;;;;;;;20.74;69.22;101590.47;5092552;27;20061;-82
2021/11/04 00:57:56;;;;;;;6.63;1.55;;;;;;;20.74;69.61;101586.00;5100853;28;20040;-81
2021/11/04 01:00:26;;;;;;;5.53;2.25;;;;;;;20.74;70.49;101582.41;5101027;27;20433;-81
2021/11/04 01:02:54;;;;;;;7.60;2.42;;;;;;;20.72;72.04;101586.91;5113641;27;20065;-82
2021/11/04 01:05:22;;;;;;;6.40;2.70;;;;;;;20.73;72.96;101588.69;5106342;28;20036;-81
2021/11/04 01:07:49;;;;;;;5.88;2.38;;;;;;;20.69;73.11;101588.72;5110039;27;20490;-83
2021/11/04 01:10:17;;;;;;;7.88;2.00;;;;;;;20.67;73.37;101597.72;5114255;27;20043;-80
2021/11/04 01:12:46;;;;;;;5.20;2.35;;;;;;;20.67;73.58;101593.22;5109654;27;20164;-81
2021/11/04 01:15:14;;;;;;;8.93;2.60;;;;;;;20.67;74.78;101587.88;5113983;27;20053;-79
2021/11/04 01:17:43;;;;;;;5.95;2.42;;;;;;;20.67;75.41;101592.34;5108124;27;20059;-79
2021/11/04 01:20:12;;;;;;;5.47;2.22;;;;;;;20.64;75.69;101590.56;5108109;27;20040;-80
2021/11/04 01:22:39;;;;;;;6.20;2.97;;;;;;;20.62;76.24;101594.16;5111885;27;20097;-83
2021/11/04 01:25:08;;;;;;;5.47;2.20;;;;;;;20.60;76.20;101594.22;5108315;28;20127;-82
2021/11/04 01:27:35;;;;;;;5.32;2.28;;;;;;;20.62;76.45;101599.53;5108592;27;20503;-85
2021/11/04 01:30:04;;;;;;;9.75;3.17;;;;;;;20.60;76.88;101588.84;5110383;27;20050;-82
2021/11/04 01:32:31;;;;;;;7.15;3.28;;;;;;;20.60;77.11;101602.25;5108418;27;20071;-82
2021/11/04 01:35:01;;;;;;;11.10;3.13;;;;;;;20.58;77.55;101598.69;5116378;27;20089;-81
2021/11/04 01:37:29;;;;;;;9.60;3.17;;;;;;;20.54;78.06;101596.97;5107213;28;20039;-83
2021/11/04 01:39:57;;;;;;;7.30;2.78;;;;;;;20.51;78.40;101588.94;5107862;28;20118;-80
2021/11/04 01:42:25;;;;;;;8.63;2.40;;;;;;;20.52;78.79;101589.84;5110171;27;20043;-82
2021/11/04 01:44:53;;;;;;;7.80;3.40;;;;;;;20.51;79.26;101594.31;5108788;28;20097;-80
2021/11/04 01:47:21;;;;;;;7.88;3.28;;;;;;;20.49;79.75;101593.44;5107861;28;20530;-81
2021/11/04 01:49:49;;;;;;;8.10;3.08;;;;;;;20.50;79.87;101587.16;5108806;27;20036;-82
2021/11/04 01:52:18;;;;;;;6.32;2.92;;;;;;;20.51;80.46;101591.63;5109683;27;20073;-81
2021/11/04 01:54:45;;;;;;;9.70;3.80;;;;;;;20.49;80.94;101601.47;5110912;27;20403;-81
2021/11/04 01:57:13;;;;;;;9.23;3.15;;;;;;;20.47;81.30;101602.41;5106527;27;20046;-80
2021/11/04 01:59:41;;;;;;;8.85;3.33;;;;;;;20.44;81.38;101595.28;5108591;27;20558;-81
2021/11/04 02:02:16;;;;;;;9.63;3.30;;;;;;;20.43;81.91;101588.13;5108887;28;20043;-82
2021/11/04 02:04:48;;;;;;;9.88;3.65;;;;;;;20.41;81.90;101597.13;5112914;27;20515;-82
2021/11/04 02:07:25;;;;;;;8.52;3.60;;;;;;;20.42;82.01;101597.09;5106970;27;20040;-82
2021/11/04 02:10:02;;;;;;;10.50;3.75;;;;;;;20.41;81.64;101595.34;5112012;27;20040;-80
2021/11/04 02:12:35;;;;;;;11.65;3.72;;;;;;;20.41;81.79;101589.97;5108049;27;20094;-77
2021/11/04 02:15:04;;;;;;;9.30;3.42;;;;;;;20.42;81.59;101601.56;5101080;27;20068;-80
2021/11/04 02:17:32;;;;;;;6.88;2.65;;;;;;;20.42;81.63;101599.75;5114057;28;20039;-80
2021/11/04 02:20:01;;;;;;;10.45;3.35;;;;;;;20.42;81.65;101599.75;5107497;28;20510;-75
2021/11/04 02:22:44;;;;;;;11.55;3.75;;;;;;;20.42;81.64;101604.25;5114005;27;20078;-80
2021/11/04 02:25:17;;;;;;;10.20;3.17;;;;;;;20.41;81.50;101602.50;5107418;27;20036;-80
2021/11/04 02:27:47;;;;;;;13.73;3.70;;;;;;;20.40;81.45;101606.06;5114266;27;20446;-81
2021/11/04 02:30:16;;;;;;;8.45;3.10;;;;;;;20.38;81.29;101603.41;5111962;27;20031;-79
2021/11/04 02:32:45;;;;;;;7.57;3.03;;;;;;;20.37;81.64;101603.41;5110608;27;20502;-80
2021/11/04 02:35:14;;;;;;;7.57;3.20;;;;;;;20.35;81.30;101607.94;5107920;27;20112;-78
2021/11/04 02:37:44;;;;;;;10.25;3.80;;;;;;;20.35;81.43;101613.28;5115206;27;20035;-81
2021/11/04 02:40:14;;;;;;;7.70;3.28;;;;;;;20.31;81.47;101607.03;5107912;27;20043;-79
2021/11/04 02:42:43;;;;;;;8.52;3.45;;;;;;;20.29;81.54;101604.34;5106976;27;20068;-79
2021/11/04 02:45:13;;;;;;;11.07;3.28;;;;;;;20.27;81.50;101600.81;5110309;28;20416;-79
2021/11/04 02:47:43;;;;;;;8.02;3.22;;;;;;;20.27;81.21;101606.19;5108802;27;20044;-81
2021/11/04 02:50:11;;;;;;;7.90;3.20;;;;;;;20.29;81.45;101620.44;5047869;28;20554;-79
2021/11/04 02:52:39;;;;;;;8.20;3.03;;;;;;;20.30;81.25;101618.66;5101372;28;20052;-79
2021/11/04 02:55:09;;;;;;;6.97;2.42;;;;;;;20.31;80.79;101609.69;5078714;28;20055;-80
2021/11/04 02:57:44;;;;;;;8.95;3.20;;;;;;;20.32;80.78;101606.13;5076322;28;20055;-80
2021/11/04 03:00:14;;;;;;;7.18;2.50;;;;;;;20.32;80.61;101607.91;5086279;28;20040;-78
2021/11/04 03:02:42;;;;;;;8.05;3.30;;;;;;;20.32;80.31;101616.84;5084204;28;20115;-80
2021/11/04 03:05:10;;;;;;;10.95;3.25;;;;;;;20.32;80.22;101616.84;5088663;28;20032;-80
2021/11/04 03:07:38;;;;;;;5.95;2.15;;;;;;;20.34;79.75;101623.13;5074618;28;20045;-78
2021/11/04 03:10:07;;;;;;;9.27;3.22;;;;;;;20.33;80.00;101620.47;5097620;28;20048;-79
2021/11/04 03:12:35;;;;;;;8.15;2.42;;;;;;;20.32;79.60;101624.91;5113042;27;20044;-82
2021/11/04 03:15:09;;;;;;;7.25;2.70;;;;;;;20.34;79.42;101624.91;5119878;27;20118;-79
2021/11/04 03:17:38;;;;;;;6.10;2.25;;;;;;;20.35;79.14;101624.88;5116527;27;20051;-80
2021/11/04 03:20:08;;;;;;;9.48;2.72;;;;;;;20.38;78.45;101630.22;5111825;27;20036;-79
2021/11/04 03:22:36;;;;;;;9.18;2.80;;;;;;;20.39;78.33;101628.44;5110037;27;20479;-82
2021/11/04 03:25:03;;;;;;;7.65;2.25;;;;;;;20.40;77.71;101631.09;5117865;27;20460;-82
2021/11/04 03:27:33;;;;;;;10.50;2.58;;;;;;;20.41;77.33;101619.47;5110644;27;20475;-79
2021/11/04 03:30:04;;;;;;;5.05;2.00;;;;;;;20.46;77.41;101622.09;5111371;27;20036;-74
2021/11/04 03:32:32;;;;;;;8.63;2.50;;;;;;;20.46;76.98;101631.03;5110454;27;20051;-78
2021/11/04 03:35:02;;;;;;;8.50;2.30;;;;;;;20.46;77.02;101632.84;5108867;27;20436;-72
2021/11/04 03:37:30;;;;;;;6.25;3.13;;;;;;;20.44;77.03;101631.94;5110792;28;20555;-81
2021/11/04 03:39:58;;;;;;;9.77;2.55;;;;;;;20.42;76.84;101631.97;5111024;27;20085;-79
2021/11/04 03:42:27;;;;;;;9.05;3.08;;;;;;;20.40;76.86;101631.09;5086025;28;20037;-80
2021/11/04 03:44:55;;;;;;;6.85;2.33;;;;;;;20.40;77.14;101632.91;5084934;28;20120;-81
2021/11/04 03:47:25;;;;;;;7.20;3.05;;;;;;;20.38;77.40;101640.97;5071705;28;20052;-80
2021/11/04 03:49:53;;;;;;;7.57;2.47;;;;;;;20.36;77.35;101637.38;5089391;28;20048;-79
2021/11/04 03:52:21;;;;;;;4.78;2.30;;;;;;;20.37;77.42;101649.00;5084073;28;20104;-79
2021/11/04 03:54:49;;;;;;;6.28;2.35;;;;;;;20.38;77.46;101643.63;5085584;28;20488;-79
2021/11/04 03:57:18;;;;;;;5.70;2.70;;;;;;;20.37;77.49;101639.19;5109784;27;20072;-81
2021/11/04 03:59:47;;;;;;;8.45;2.80;;;;;;;20.36;77.66;101644.53;5085364;28;20080;-81
2021/11/04 04:02:14;;;;;;;5.75;2.75;;;;;;;20.34;77.75;101641.00;5089056;28;20036;-79
2021/11/04 04:04:51;;;;;;;8.40;2.78;;;;;;;20.34;77.94;101638.34;5103541;27;20040;-80
2021/11/04 04:07:26;;;;;;;8.30;2.65;;;;;;;20.33;77.92;101648.16;5080256;28;20048;-80
2021/11/04 04:09:54;;;;;;;5.47;2.47;;;;;;;20.31;78.24;101633.84;5084467;28;20070;-79
2021/11/04 04:12:21;;;;;;;6.32;2.33;;;;;;;20.32;78.37;101645.47;5084584;28;20043;-80
2021/11/04 04:14:50;;;;;;;9.63;3.78;;;;;;;20.29;78.62;101644.56;5084072;28;20037;-78
2021/11/04 04:17:20;;;;;;;6.90;2.63;;;;;;;20.26;78.84;101643.75;5105436;27;20032;-81
2021/11/04 04:19:50;;;;;;;10.40;3.25;;;;;;;20.26;78.83;101643.75;5110804;27;20046;-79
2021/11/04 04:22:17;;;;;;;10.38;2.97;;;;;;;20.25;79.46;101639.28;5109423;27;20131;-79
2021/11/04 04:24:45;;;;;;;7.97;2.22;;;;;;;20.23;79.30;101646.44;5104195;27;20118;-81
2021/11/04 04:27:14;;;;;;;10.10;2.60;;;;;;;20.23;79.30;101647.31;5108092;27;20426;-79
2021/11/04 04:29:41;;;;;;;8.25;2.20;;;;;;;20.22;79.66;101653.59;5110435;27;20059;-80
2021/11/04 04:32:09;;;;;;;10.90;3.25;;;;;;;20.22;79.77;101655.38;5109002;27;20122;-79
2021/11/04 04:34:37;;;;;;;6.47;3.05;;;;;;;20.20;79.99;101651.84;5110563;27;20314;-79
2021/11/04 04:37:07;;;;;;;9.13;2.95;;;;;;;20.19;79.94;101650.06;5109842;27;20048;-79
2021/11/04 04:39:34;;;;;;;6.97;2.95;;;;;;;20.19;79.98;101660.78;5121272;27;20044;-79
2021/11/04 04:42:02;;;;;;;8.57;2.83;;;;;;;20.17;79.78;101658.13;5107177;27;20036;-79
2021/11/04 04:44:30;;;;;;;12.15;3.28;;;;;;;20.15;79.93;101661.72;5114940;27;20047;-80
2021/11/04 04:46:57;;;;;;;9.27;3.83;;;;;;;20.13;80.05;101661.75;5088593;28;20103;-80
2021/11/04 04:49:25;;;;;;;6.53;3.33;;;;;;;20.15;80.18;101661.72;5085706;28;20040;-79
2021/11/04 04:51:53;;;;;;;7.03;2.63;;;;;;;20.13;80.27;101655.47;5098172;28;20120;-80
2021/11/04 04:54:23;;;;;;;9.55;2.90;;;;;;;20.13;79.98;101666.22;5109007;27;20471;-78
2021/11/04 04:56:50;;;;;;;8.65;2.85;;;;;;;20.14;80.04;101671.56;5109427;27;20495;-79
2021/11/04 04:59:18;;;;;;;9.77;2.50;;;;;;;20.17;79.28;101678.66;5111918;27;20032;-79
2021/11/04 05:01:45;;;;;;;6.63;2.42;;;;;;;20.19;79.24;101683.13;5088094;28;20044;-79
2021/11/04 05:04:13;;;;;;;7.32;2.90;;;;;;;20.20;78.93;101684.03;5107244;27;20043;-78
2021/11/04 05:06:41;;;;;;;6.30;2.13;;;;;;;20.21;78.52;101684.03;5099559;27;20044;-78
2021/11/04 05:09:09;;;;;;;5.90;2.35;;;;;;;20.23;78.21;101683.97;5081252;28;20117;-79
2021/11/04 05:11:38;;;;;;;6.53;1.77;;;;;;;20.29;77.66;101689.28;5085967;28;20090;-78
2021/11/04 05:14:06;;;;;;;6.90;1.92;;;;;;;20.35;76.62;101691.06;5120458;27;20560;-80
2021/11/04 05:16:33;;;;;;;6.75;1.95;;;;;;;20.38;76.41;101689.25;5072138;28;20615;-79
2021/11/04 05:19:01;;;;;;;3.40;1.63;;;;;;;20.42;75.79;101690.09;5101843;27;20051;-71
2021/11/04 05:21:29;;;;;;;4.63;2.05;;;;;;;20.47;75.43;101699.00;5078864;28;20040;-78
2021/11/04 05:23:57;;;;;;;7.00;2.38;;;;;;;20.50;75.02;101697.16;5104794;27;20040;-79
2021/11/04 05:26:24;;;;;;;7.72;1.98;;;;;;;20.54;74.68;101696.25;5079222;28;20089;-80
2021/11/04 05:28:53;;;;;;;5.88;1.95;;;;;;;20.71;74.41;101700.53;5094590;27;20048;-79
2021/11/04 05:31:21;;;;;;;5.05;1.92;;;;;;;20.88;74.42;101695.84;5086426;28;20052;-79
2021/11/04 05:33:52;;;;;;;5.72;2.25;;;;;;;21.05;74.71;101700.13;5093265;27;20035;-80
2021/11/04 05:36:20;;;;;;;11.70;3.65;;;;;;;21.21;75.24;101708.88;5085504;27;20044;-79
2021/11/04 05:38:48;;;;;;;10.95;2.75;;;;;;;21.34;75.14;101712.28;5083868;28;20036;-83
2021/11/04 05:41:16;;;;;;;5.55;1.85;;;;;;;21.49;74.84;101717.47;5089795;27;20086;-80
2021/11/04 05:43:44;;;;;;;9.18;3.13;;;;;;;21.65;74.36;101727.09;5085527;27;20050;-80
2021/11/04 05:46:14;;;;;;;7.70;2.20;;;;;;;21.80;73.62;101717.91;5078704;28;20427;-80
2021/11/04 05:48:41;;;;;;;7.50;2.42;;;;;;;21.96;73.12;101724.84;5105682;27;20082;-79
2021/11/04 05:51:09;;;;;;;9.10;2.15;;;;;;;22.11;72.73;101726.41;5092827;27;20508;-80
2021/11/04 05:53:36;;;;;;;6.53;2.00;;;;;;;22.27;71.78;101726.13;5106924;27;20415;-80
2021/11/04 05:56:05;;;;;;;10.05;2.72;;;;;;;22.41;70.97;101720.50;5107979;27;20047;-78
2021/11/04 05:58:32;;;;;;;6.70;2.03;;;;;;;22.53;69.83;101732.84;5106587;28;20051;-77
2021/11/04 06:01:00;;;;;;;6.03;2.45;;;;;;;22.67;69.37;101725.41;5107118;28;20054;-78
2021/11/04 06:03:29;;;;;;;6.38;2.20;;;;;;;22.82;69.23;101735.03;5105142;28;20055;-77
2021/11/04 06:05:57;;;;;;;5.28;1.80;;;;;;;22.98;68.49;101740.06;5105843;27;20483;-77
2021/11/04 06:08:25;;;;;;;4.95;1.70;;;;;;;23.12;67.74;101734.41;5105441;27;20050;-78
2021/11/04 06:10:52;;;;;;;5.47;1.58;;;;;;;23.26;67.30;101744.91;5108512;27;20046;-79
2021/11/04 06:13:20;;;;;;;6.32;1.60;;;;;;;23.41;66.19;101745.47;5107554;27;20036;-79
2021/11/04 06:15:48;;;;;;;4.65;1.60;;;;;;;23.59;65.63;101744.22;5106812;27;20043;-79
2021/11/04 06:18:15;;;;;;;4.22;1.40;;;;;;;23.74;63.90;101745.69;5104881;28;20035;-77
2021/11/04 06:20:44;;;;;;;1.67;0.90;;;;;;;23.88;61.81;101742.66;5100322;27;20048;-78
2021/11/04 06:23:12;;;;;;;5.93;1.23;;;;;;;24.02;60.13;101740.53;5105867;27;20073;-77
2021/11/04 06:25:40;;;;;;;5.43;1.42;;;;;;;24.15;59.00;101742.00;5107913;27;20050;-77
2021/11/04 06:28:07;;;;;;;3.53;1.20;;;;;;;24.30;58.55;101738.94;5106588;27;20043;-78
2021/11/04 06:30:35;;;;;;;3.33;1.30;;;;;;;24.45;57.50;101740.34;5107819;27;20044;-78
2021/11/04 06:33:03;;;;;;;2.65;0.70;;;;;;;24.65;56.55;101742.53;5106791;27;20036;-78
2021/11/04 06:35:30;;;;;;;4.35;1.23;;;;;;;24.87;55.66;101744.63;5110802;27;20073;-78
2021/11/04 06:38:00;;;;;;;2.72;0.90;;;;;;;25.00;54.12;101737.97;5112181;27;20104;-78
2021/11/04 06:40:27;;;;;;;11.52;1.10;;;;;;;25.09;53.71;101739.50;5104370;28;20082;-77
2021/11/04 06:42:56;;;;;;;3.47;0.73;;;;;;;25.21;52.79;101739.13;5110035;27;20035;-78
2021/11/04 06:45:23;;;;;;;5.00;1.10;;;;;;;25.36;52.58;101738.69;5108672;27;20649;-78
2021/11/04 06:47:53;;;;;;;4.03;1.13;;;;;;;25.51;52.02;101747.28;5109572;27;20420;-77
2021/11/04 06:50:24;;;;;;;5.30;1.10;;;;;;;25.59;51.80;101738.03;5108784;28;20055;-78
2021/11/04 06:52:59;;;;;;;4.78;1.33;;;;;;;25.79;52.16;101735.59;5110052;27;20097;-78
2021/11/04 06:55:29;;;;;;;4.43;1.17;;;;;;;25.92;52.03;101733.38;5109987;27;20044;-78
2021/11/04 06:58:01;;;;;;;5.00;1.60;;;;;;;26.03;52.31;101733.91;5105348;28;20039;-78
2021/11/04 07:00:31;;;;;;;7.15;1.50;;;;;;;26.18;51.53;101737.94;5110312;28;20081;-78
2021/11/04 07:03:08;;;;;;;3.88;1.30;;;;;;;26.32;50.69;101732.94;5089807;28;20139;-77
2021/11/04 07:05:36;;;;;;;5.13;1.20;;;;;;;26.40;49.23;101732.69;5125002;27;20718;-78
2021/11/04 07:08:05;;;;;;;5.68;1.20;;;;;;;26.50;49.01;101728.75;5108619;27;20040;-79
2021/11/04 07:10:35;;;;;;;4.40;1.23;;;;;;;26.62;47.33;101727.41;5109054;27;20135;-78
2021/11/04 07:13:03;;;;;;;4.22;1.17;;;;;;;26.73;46.82;101728.78;5110892;27;20054;-79
2021/11/04 07:15:31;;;;;;;2.33;1.35;;;;;;;26.80;46.05;101730.34;5106469;27;20527;-79
2021/11/04 07:17:59;;;;;;;5.75;1.27;;;;;;;26.87;45.32;101728.28;5105647;27;20044;-85
2021/11/04 07:20:26;;;;;;;5.40;1.50;;;;;;;26.98;45.59;101735.13;5099028;27;20097;-80
2021/11/04 07:22:55;;;;;;;3.88;1.45;;;;;;;27.15;45.82;101733.63;5108854;27;20132;-78
2021/11/04 07:25:24;;;;;;;4.72;1.48;;;;;;;27.25;45.46;101730.50;5107960;28;20051;-80
2021/11/04 07:27:59;;;;;;;5.28;1.50;;;;;;;27.34;43.83;101727.44;5110570;27;20047;-79
2021/11/04 07:30:30;;;;;;;3.65;0.93;;;;;;;27.44;43.72;101736.09;5102269;28;20051;-79
2021/11/04 07:32:59;;;;;;;7.53;1.35;;;;;;;27.47;43.08;101737.81;5110811;27;20116;-77
2021/11/04 07:35:29;;;;;;;3.53;1.40;;;;;;;27.50;42.63;101735.00;5108746;27;20525;-78
2021/11/04 07:37:58;;;;;;;4.90;1.33;;;;;;;27.56;42.95;101743.81;5106811;28;20471;-78
2021/11/04 07:40:28;;;;;;;4.43;1.10;;;;;;;27.70;43.41;101743.22;5097800;27;20088;-81
2021/11/04 07:43:01;;;;;;;2.75;1.00;;;;;;;27.86;43.38;101738.97;5111130;27;20043;-81
2021/11/04 07:45:31;;;;;;;4.13;1.50;;;;;;;27.98;43.06;101743.91;5100720;27;20048;-83
2021/11/04 07:47:59;;;;;;;3.53;1.65;;;;;;;28.22;43.62;101735.72;5089457;28;20361;-79
2021/11/04 07:50:28;;;;;;;6.30;1.35;;;;;;;28.49;42.41;101742.66;5105517;27;20124;-78
2021/11/04 07:52:58;;;;;;;5.45;1.33;;;;;;;28.54;40.31;101737.94;5110389;28;20116;-80
2021/11/04 07:55:25;;;;;;;5.90;1.50;;;;;;;28.51;39.84;101738.06;5111496;27;20043;-79
2021/11/04 07:57:53;;;;;;;7.15;1.60;;;;;;;28.45;39.95;101739.22;5108507;28;20044;-79
2021/11/04 08:00:28;;;;;;;6.47;1.30;;;;;;;28.58;39.85;101738.69;5108200;27;20043;-80
2021/11/04 08:02:56;;;;;;;5.65;1.27;;;;;;;28.54;38.91;101737.94;5105650;28;20126;-80
2021/11/04 08:05:24;;;;;;;5.05;1.48;;;;;;;28.60;39.43;101739.50;5110097;27;20051;-79
2021/11/04 08:07:51;;;;;;;6.93;1.60;;;;;;;28.77;38.90;101731.50;5113201;27;20821;-80
2021/11/04 08:10:21;;;;;;;5.25;2.13;;;;;;;28.78;39.15;101739.63;5107773;27;20453;-79
2021/11/04 08:12:49;;;;;;;7.45;2.92;;;;;;;28.89;39.17;101742.72;5108078;27;20403;-80
2021/11/04 08:15:17;;;;;;;6.78;2.00;;;;;;;28.95;38.56;101740.72;5109939;27;20032;-78
2021/11/04 08:17:46;;;;;;;9.25;2.15;;;;;;;28.97;38.82;101741.50;5109422;27;20403;-79
2021/11/04 08:20:14;;;;;;;3.75;1.27;;;;;;;29.06;38.36;101736.53;5104260;28;20379;-79
2021/11/04 08:22:41;;;;;;;9.27;2.40;;;;;;;28.93;38.30;101732.59;5078134;28;20050;-80
2021/11/04 08:25:09;;;;;;;4.65;1.35;;;;;;;29.03;37.56;101727.63;5073751;28;20431;-81
2021/11/04 08:27:37;;;;;;;5.47;1.50;;;;;;;28.97;37.75;101742.38;5077957;28;20048;-79
2021/11/04 08:30:05;;;;;;;9.55;1.52;;;;;;;29.02;37.22;101736.72;5085887;28;20040;-80
2021/11/04 08:32:33;;;;;;;3.65;1.92;;;;;;;29.03;37.66;101733.06;5112302;27;20101;-78
2021/11/04 08:35:02;;;;;;;7.60;1.70;;;;;;;29.12;37.45;101730.81;5088873;28;20119;-79
2021/11/04 08:37:30;;;;;;;7.55;1.90;;;;;;;29.21;37.79;101737.69;5088062;28;20510;-80
2021/11/04 08:39:58;;;;;;;8.93;2.10;;;;;;;29.36;37.32;101736.09;5110148;27;20035;-80
2021/11/04 08:42:26;;;;;;;6.22;2.28;;;;;;;29.42;36.73;101742.13;5107867;27;20043;-79
2021/11/04 08:44:55;;;;;;;6.82;2.30;;;;;;;29.42;36.68;101743.97;5110968;27;20040;-79
2021/11/04 08:47:22;;;;;;;6.43;1.70;;;;;;;29.41;37.07;101744.91;5107078;27;20040;-80
2021/11/04 08:49:50;;;;;;;5.75;2.05;;;;;;;29.63;37.81;101741.09;5110012;27;20039;-81
2021/11/04 08:52:19;;;;;;;6.88;2.58;;;;;;;29.87;36.87;101744.47;5108538;27;20039;-81
2021/11/04 08:54:47;;;;;;;6.63;1.38;;;;;;;29.95;36.10;101735.97;5102697;27;20100;-81
2021/11/04 08:57:15;;;;;;;7.90;1.40;;;;;;;29.95;35.92;101736.84;5106404;27;20115;-79
2021/11/04 08:59:43;;;;;;;5.47;1.50;;;;;;;29.89;35.81;101736.22;5107915;27;20080;-88
2021/11/04 09:02:12;;;;;;;3.88;1.38;;;;;;;29.87;35.68;101738.13;5104397;27;20046;-80
2021/11/04 09:04:42;;;;;;;5.57;1.75;;;;;;;29.89;35.52;101733.50;5108176;27;20044;-80
2021/11/04 09:07:10;;;;;;;6.53;1.58;;;;;;;29.87;34.69;101739.03;5107407;28;20085;-80
2021/11/04 09:09:39;;;;;;;5.88;1.80;;;;;;;29.79;35.27;101741.25;5104948;28;20067;-79
2021/11/04 09:12:07;;;;;;;5.60;1.95;;;;;;;29.85;35.64;101737.34;5107693;28;20112;-80
2021/11/04 09:14:36;;;;;;;4.68;1.60;;;;;;;29.89;35.59;101730.78;5104203;27;20526;-81
2021/11/04 09:17:04;;;;;;;7.97;1.30;;;;;;;29.97;35.80;101731.31;5108849;27;20127;-78
2021/11/04 09:19:31;;;;;;;6.07;1.45;;;;;;;30.03;35.65;101729.19;5108927;28;20036;-80
2021/11/04 09:21:59;;;;;;;5.72;1.33;;;;;;;30.10;35.54;101729.75;5107503;28;20418;-78
2021/11/04 09:24:29;;;;;;;10.25;1.27;;;;;;;30.24;34.49;101727.22;5107679;27;20051;-80
2021/11/04 09:27:01;;;;;;;4.38;1.42;;;;;;;30.32;34.74;101741.34;5109851;27;20066;-79
2021/11/04 09:29:30;;;;;;;4.30;1.30;;;;;;;30.28;34.73;101736.09;5107669;27;20943;-80
2021/11/04 09:31:57;;;;;;;5.38;1.30;;;;;;;30.31;34.35;101725.94;5106452;28;20043;-80
2021/11/04 09:34:28;;;;;;;3.95;1.23;;;;;;;30.38;34.38;101723.78;5105982;27;20491;-81
2021/11/04 09:36:56;;;;;;;9.40;1.92;;;;;;;30.25;34.00;101720.81;5109226;27;20506;-80
2021/11/04 09:39:24;;;;;;;4.07;1.38;;;;;;;30.34;34.23;101723.03;5106844;27;20059;-80
2021/11/04 09:41:52;;;;;;;4.90;1.48;;;;;;;30.46;34.06;101719.69;5108889;27;20483;-79
2021/11/04 09:44:21;;;;;;;5.10;1.27;;;;;;;30.59;33.77;101711.78;5106276;28;20556;-80
2021/11/04 09:46:49;;;;;;;8.60;1.90;;;;;;;30.70;33.88;101725.75;5106610;27;20127;-80
2021/11/04 09:49:17;;;;;;;7.47;1.45;;;;;;;30.73;33.31;101714.66;5108062;27;20062;-79
2021/11/04 09:51:44;;;;;;;6.28;1.42;;;;;;;30.66;33.18;101707.75;5108765;27;20036;-81
2021/11/04 09:54:12;;;;;;;6.13;1.30;;;;;;;30.60;33.02;101707.19;5108493;27;20147;-79
2021/11/04 09:56:40;;;;;;;8.70;1.50;;;;;;;30.68;33.73;101707.69;5107020;28;20195;-80
2021/11/04 09:59:08;;;;;;;7.57;1.50;;;;;;;30.81;33.98;101706.06;5107435;27;20127;-79
2021/11/04 10:01:46;;;;;;;3.90;1.08;;;;;;;31.01;32.86;101703.16;5107100;27;20048;-80
2021/11/04 10:04:14;;;;;;;4.43;1.42;;;;;;;30.87;33.00;101700.28;5084467;28;20131;-80
2021/11/04 10:06:42;;;;;;;5.57;1.30;;;;;;;30.78;33.07;101696.22;5107668;27;20482;-80
2021/11/04 10:09:12;;;;;;;6.30;1.67;;;;;;;30.82;33.06;101697.81;5109535;28;20036;-79
2021/11/04 10:11:46;;;;;;;7.10;1.33;;;;;;;30.85;32.90;101689.44;5122491;27;20040;-81
2021/11/04 10:14:16;;;;;;;8.82;1.98;;;;;;;30.84;32.83;101690.44;5105949;27;20066;-75
2021/11/04 10:16:45;;;;;;;5.75;1.60;;;;;;;30.77;32.51;101683.53;5119407;27;20043;-77
2021/11/04 10:19:14;;;;;;;5.32;1.30;;;;;;;30.63;32.69;101686.13;5079973;28;20044;-78
2021/11/04 10:21:44;;;;;;;5.85;1.30;;;;;;;30.55;32.90;101676.59;5083921;28;20039;-83
2021/11/04 10:24:19;;;;;;;5.78;1.13;;;;;;;30.45;33.01;101673.44;5087758;28;20143;-79
2021/11/04 10:26:53;;;;;;;3.10;1.00;;;;;;;30.42;33.13;101673.59;5089677;28;20036;-91
2021/11/04 10:29:20;;;;;;;8.25;1.90;;;;;;;30.38;32.70;101672.88;5104038;28;20047;-80
2021/11/04 10:31:51;;;;;;;5.90;1.80;;;;;;;30.42;32.63;101673.59;5110385;27;20050;-80
2021/11/04 10:34:27;;;;;;;5.18;1.90;;;;;;;30.42;32.58;101665.41;5095640;28;20046;-82
2021/11/04 10:36:57;;;;;;;7.30;1.60;;;;;;;30.35;32.11;101670.31;5116503;27;20196;-80
2021/11/04 10:39:28;;;;;;;5.57;1.70;;;;;;;30.32;32.54;101664.16;5109188;27;20048;-87
2021/11/04 10:41:57;;;;;;;4.70;1.20;;;;;;;30.25;32.16;101655.41;5114125;27;20126;-75
2021/11/04 10:44:25;;;;;;;5.65;1.42;;;;;;;30.20;32.22;101648.41;5099927;27;20040;-78
2021/11/04 10:46:57;;;;;;;8.85;2.10;;;;;;;30.11;32.27;101647.06;5101593;27;20081;-81
2021/11/04 10:49:26;;;;;;;9.02;1.90;;;;;;;29.97;31.81;101642.31;5102892;27;20429;-76
2021/11/04 10:51:58;;;;;;;2.38;1.10;;;;;;;29.92;32.33;101646.25;5109230;27;20043;-78
2021/11/04 10:54:27;;;;;;;6.13;1.48;;;;;;;29.89;32.29;101644.50;5122582;27;20680;-78
2021/11/04 10:56:55;;;;;;;7.93;1.77;;;;;;;29.84;32.55;101637.53;5102310;28;20071;-79
2021/11/04 10:59:25;;;;;;;7.03;1.90;;;;;;;29.80;31.97;101634.06;5093908;27;20537;-79
2021/11/04 11:01:56;;;;;;;9.20;1.75;;;;;;;29.78;32.16;101626.97;5097464;27;20057;-81
2021/11/04 11:04:33;;;;;;;11.13;1.80;;;;;;;29.77;32.37;101620.63;5098382;27;20055;-79
2021/11/04 11:07:01;;;;;;;5.88;1.40;;;;;;;29.79;31.97;101621.44;5099052;27;20069;-78
2021/11/04 11:09:30;;;;;;;6.28;1.33;;;;;;;29.86;32.24;101627.47;5107827;27;20075;-81
2021/11/04 11:12:02;;;;;;;7.20;0.98;;;;;;;29.96;32.07;101612.44;5100609;27;20056;-79
2021/11/04 11:14:32;;;;;;;5.63;1.73;;;;;;;30.01;31.65;101616.69;5101787;27;20066;-81
2021/11/04 11:17:03;;;;;;;4.50;1.42;;;;;;;30.05;31.56;101622.88;5083257;28;20119;-77
2021/11/04 11:19:33;;;;;;;7.05;1.88;;;;;;;30.07;32.14;101615.47;5106262;27;20054;-80
2021/11/04 11:22:01;;;;;;;5.53;1.55;;;;;;;30.03;32.42;101616.59;5104803;27;20047;-76
2021/11/04 11:24:31;;;;;;;6.22;1.40;;;;;;;29.98;32.10;101615.97;5097400;27;20050;-79
2021/11/04 11:27:00;;;;;;;4.90;2.10;;;;;;;29.91;31.96;101614.47;5107405;27;20036;-76
2021/11/04 11:29:34;;;;;;;7.43;1.38;;;;;;;29.81;32.34;101610.44;5102964;27;20047;-76
2021/11/04 11:32:06;;;;;;;8.07;1.52;;;;;;;29.75;32.29;101603.47;5100136;27;20046;-76